METAR AND TAF INFORMATION
METAR FOR LGEL
ADDS - METARS form results

(1809 UTC 21 July 2019)
Data provider http://aviationweather.gov/metar/data/
 
METAR text: LGEL 211750Z 36006KT CAVOK 29/12 Q1015
Conditions at: LGEL (ELEFSIS (HEL-AFB, GR) observed 1750 UTC 21 July 2019
Temperature: 29.0°C (84°F)
Dewpoint: 12.0°C (54°F) [RH = 35%]
Pressure (altimeter): 29.97 inches Hg (1015.0 mb)
Winds: from the N (360 degrees) at 7 MPH (6 knots; 3.1 m/s)
Visibility: 6 or more miles (10+ km)
Ceiling: ceiling and visibility are OK
Clouds: unknown
Weather: no significant weather observed at this time

METAR text: LGEL 211720Z 34010KT CAVOK 30/12 Q1015
Conditions at: LGEL (ELEFSIS (HEL-AFB, GR) observed 1720 UTC 21 July 2019
Temperature: 30.0°C (86°F)
Dewpoint: 12.0°C (54°F) [RH = 33%]
Pressure (altimeter): 29.97 inches Hg (1015.0 mb)
Winds: from the NNW (340 degrees) at 12 MPH (10 knots; 5.1 m/s)
Visibility: 6 or more miles (10+ km)
Ceiling: ceiling and visibility are OK
Clouds: unknown
Weather: no significant weather observed at this time

Forecast for: LGEL (ELEFSIS (HEL-AFB, GR)
Text: TAF LGEL 211700Z 2118/2218 35010G20KT 9999 FEW025
Forecast period: 1800 to 2000 UTC 21 July 2019
Forecast type: FROM: standard forecast or significant change
Winds: from the N (350 degrees) at 12 MPH (10 knots; 5.1 m/s)
gusting to 23 MPH (20 knots; 10.3 m/s)
Visibility: 6 or more miles 10+ km)
Ceiling: at least 12,000 feet AGL
Clouds: few clouds at 2500 feet AGL
Weather: no significant weather forecast for this period
Text: BECMG 2120/2122 35010KT
Forecast period: 2000 UTC 21 July 2019 to 0500 UTC 22 July 2019
Forecast type: BECOMING: Conditions expected to become as follows by 2200 UTC 21 July 2019
Winds: from the N (350 degrees) at 12 MPH (10 knots; 5.1 m/s)
Visibility: 6 or more miles 10+ km)
Ceiling: at least 12,000 feet AGL
Clouds: few clouds at 2500 feet AGL
Weather: no significant weather forecast for this period
Text: BECMG 2205/2207 36015G25KT
Forecast period: 0500 to 1800 UTC 22 July 2019
Forecast type: BECOMING: Conditions expected to become as follows by 0700 UTC 22 July 2019
Winds: from the N (360 degrees) at 17 MPH (15 knots; 7.7 m/s)
gusting to 29 MPH (25 knots; 12.9 m/s)
Visibility: 6 or more miles 10+ km)
Ceiling: at least 12,000 feet AGL
Clouds: few clouds at 2500 feet AGL
Weather: no significant weather forecast for this period

 ΧΑΡΤΗΣ ΑΕΡΟΔΡΟΜΙΟΥ

 RUNWAY INFORMATION
Διάδρομος 18 Runway length 8985 ft Runway width 131 ft
Runway elevation 129 ft Runway displaced threshold 0 ft Runway heading 180
Διάδρομος 36 Runway length 8985 ft Runway width 131 ft
Runway elevation 20 ft Runway displaced threshold 198 ft Runway heading 360

 ΣΥΧΝΟΤΗΤΕΣ ΑΕΡΟΔΡΟΜΙΟΥ
Τύπος APP Όνομα ATHINAI AP Συχνότητα 119.1 MHZ
Τύπος TWR Όνομα TWR Συχνότητα 120.15 MHZ

 AIRPORT NEAR NAVIGATION AIDS
Τύπος TACAN Όνομα Elefsis Συχνότητα 108200 KHZ
Τύπος NDB Όνομα Elefsis Συχνότητα 418 KHZ



Hellenic Air Force Virtual - All rights reserved 2019 - Powered by VAM